sensor_id;sensor_type;location;lat;lon;timestamp;pressure;altitude;pressure_sealevel;temperature;humidity
17254;BME280;32542;52.832;13.816;2023-08-07T00:02:21;100118.84;;;23.09;56.85
17254;BME280;32542;52.832;13.816;2023-08-07T00:05:24;100115.19;;;23.10;56.80
17254;BME280;32542;52.832;13.816;2023-08-07T00:08:29;100114.38;;;23.09;56.87
17254;BME280;32542;52.832;13.816;2023-08-07T00:11:33;100109.97;;;23.08;56.87
17254;BME280;32542;52.832;13.816;2023-08-07T00:14:36;100111.78;;;23.08;56.79
17254;BME280;32542;52.832;13.816;2023-08-07T00:17:38;100118.84;;;23.09;56.81
17254;BME280;32542;52.832;13.816;2023-08-07T00:20:42;100105.50;;;23.09;56.83
17254;BME280;32542;52.832;13.816;2023-08-07T00:23:46;100100.22;;;23.07;56.92
17254;BME280;32542;52.832;13.816;2023-08-07T00:26:49;100095.75;;;23.08;56.80
17254;BME280;32542;52.832;13.816;2023-08-07T00:29:52;100105.50;;;23.09;56.70
17254;BME280;32542;52.832;13.816;2023-08-07T00:32:55;100107.28;;;23.08;56.80
17254;BME280;32542;52.832;13.816;2023-08-07T00:35:58;100101.94;;;23.08;56.89
17254;BME280;32542;52.832;13.816;2023-08-07T00:39:02;100109.03;;;23.09;57.04
17254;BME280;32542;52.832;13.816;2023-08-07T00:42:06;100109.97;;;23.08;56.72
17254;BME280;32542;52.832;13.816;2023-08-07T00:45:09;100101.94;;;23.08;56.76
17254;BME280;32542;52.832;13.816;2023-08-07T00:48:13;100102.81;;;23.09;57.08
17254;BME280;32542;52.832;13.816;2023-08-07T00:51:17;100099.41;;;23.07;56.93
17254;BME280;32542;52.832;13.816;2023-08-07T00:54:21;100102.06;;;23.07;57.12
17254;BME280;32542;52.832;13.816;2023-08-07T00:57:25;100093.06;;;23.08;56.88
17254;BME280;32542;52.832;13.816;2023-08-07T01:00:29;100096.63;;;23.08;57.08
17254;BME280;32542;52.832;13.816;2023-08-07T01:03:32;100101.09;;;23.08;56.87
17254;BME280;32542;52.832;13.816;2023-08-07T01:06:35;100095.75;;;23.08;57.11
17254;BME280;32542;52.832;13.816;2023-08-07T01:09:39;100094.88;;;23.07;57.02
17254;BME280;32542;52.832;13.816;2023-08-07T01:12:48;100094.88;;;23.07;56.83
17254;BME280;32542;52.832;13.816;2023-08-07T01:15:55;100090.41;;;23.08;56.94
17254;BME280;32542;52.832;13.816;2023-08-07T01:19:00;100084.19;;;23.07;57.05
17254;BME280;32542;52.832;13.816;2023-08-07T01:22:07;100083.38;;;23.07;56.92
17254;BME280;32542;52.832;13.816;2023-08-07T01:25:12;100067.34;;;23.07;56.90
17254;BME280;32542;52.832;13.816;2023-08-07T01:28:18;100066.50;;;23.06;57.04
17254;BME280;32542;52.832;13.816;2023-08-07T01:31:22;100067.34;;;23.07;56.86
17254;BME280;32542;52.832;13.816;2023-08-07T01:34:28;100062.00;;;23.07;56.86
17254;BME280;32542;52.832;13.816;2023-08-07T01:37:36;100063.69;;;23.08;57.14
17254;BME280;32542;52.832;13.816;2023-08-07T01:40:42;100062.00;;;23.07;57.04
17254;BME280;32542;52.832;13.816;2023-08-07T01:43:46;100078.03;;;23.07;56.78
17254;BME280;32542;52.832;13.816;2023-08-07T01:46:49;100071.72;;;23.08;57.07
17254;BME280;32542;52.832;13.816;2023-08-07T01:49:52;100067.34;;;23.07;56.89
17254;BME280;32542;52.832;13.816;2023-08-07T01:52:56;100069.16;;;23.06;57.02
17254;BME280;32542;52.832;13.816;2023-08-07T01:55:59;100072.69;;;23.07;57.13
17254;BME280;32542;52.832;13.816;2023-08-07T01:59:02;100067.34;;;23.07;57.11
17254;BME280;32542;52.832;13.816;2023-08-07T02:02:05;100070.03;;;23.07;57.21
17254;BME280;32542;52.832;13.816;2023-08-07T02:05:08;100070.97;;;23.06;56.97
17254;BME280;32542;52.832;13.816;2023-08-07T02:08:12;100070.97;;;23.06;57.08
17254;BME280;32542;52.832;13.816;2023-08-07T02:11:15;100063.81;;;23.06;57.00
17254;BME280;32542;52.832;13.816;2023-08-07T02:14:19;100065.63;;;23.06;57.10
17254;BME280;32542;52.832;13.816;2023-08-07T02:17:22;100062.00;;;23.07;56.88
17254;BME280;32542;52.832;13.816;2023-08-07T02:20:25;100060.28;;;23.06;57.01
17254;BME280;32542;52.832;13.816;2023-08-07T02:23:29;100060.28;;;23.06;57.12
17254;BME280;32542;52.832;13.816;2023-08-07T02:26:35;100064.69;;;23.07;56.90
17254;BME280;32542;52.832;13.816;2023-08-07T02:29:38;100065.63;;;23.06;57.10
17254;BME280;32542;52.832;13.816;2023-08-07T02:32:41;100074.50;;;23.06;57.13
17254;BME280;32542;52.832;13.816;2023-08-07T02:35:46;100078.03;;;23.07;56.82
17254;BME280;32542;52.832;13.816;2023-08-07T02:38:50;100086.13;;;23.05;56.93
17254;BME280;32542;52.832;13.816;2023-08-07T02:41:55;100078.97;;;23.06;57.20
17254;BME280;32542;52.832;13.816;2023-08-07T02:44:58;100076.31;;;23.06;57.01
17254;BME280;32542;52.832;13.816;2023-08-07T02:48:01;100077.28;;;23.05;57.14
17254;BME280;32542;52.832;13.816;2023-08-07T02:51:04;100078.97;;;23.06;57.10
17254;BME280;32542;52.832;13.816;2023-08-07T02:54:08;100076.31;;;23.06;56.91
17254;BME280;32542;52.832;13.816;2023-08-07T02:57:11;100070.09;;;23.05;57.05
17254;BME280;32542;52.832;13.816;2023-08-07T03:00:14;100070.09;;;23.05;57.04
17254;BME280;32542;52.832;13.816;2023-08-07T03:03:17;100062.09;;;23.05;57.12
17254;BME280;32542;52.832;13.816;2023-08-07T03:06:20;100059.41;;;23.05;57.14
17254;BME280;32542;52.832;13.816;2023-08-07T03:09:24;100061.25;;;23.05;57.15
17254;BME280;32542;52.832;13.816;2023-08-07T03:12:27;100060.28;;;23.06;56.92
17254;BME280;32542;52.832;13.816;2023-08-07T03:15:30;100063.06;;;23.04;56.96
17254;BME280;32542;52.832;13.816;2023-08-07T03:18:33;100061.25;;;23.05;56.92
17254;BME280;32542;52.832;13.816;2023-08-07T03:21:36;100066.59;;;23.05;57.17
17254;BME280;32542;52.832;13.816;2023-08-07T03:24:46;100070.09;;;23.05;56.89
17254;BME280;32542;52.832;13.816;2023-08-07T03:27:49;100069.28;;;23.05;57.15
17254;BME280;32542;52.832;13.816;2023-08-07T03:30:52;100074.63;;;23.05;57.14
17254;BME280;32542;52.832;13.816;2023-08-07T03:33:56;100073.75;;;23.04;56.94
17254;BME280;32542;52.832;13.816;2023-08-07T03:37:01;100069.28;;;23.05;56.91
17254;BME280;32542;52.832;13.816;2023-08-07T03:40:07;100063.94;;;23.05;56.84
17254;BME280;32542;52.832;13.816;2023-08-07T03:43:10;100061.25;;;23.05;56.91
17254;BME280;32542;52.832;13.816;2023-08-07T03:46:14;100065.75;;;23.04;56.95
17254;BME280;32542;52.832;13.816;2023-08-07T03:49:18;100058.59;;;23.05;56.83
17254;BME280;32542;52.832;13.816;2023-08-07T03:52:20;100051.53;;;23.04;56.88
17254;BME280;32542;52.832;13.816;2023-08-07T03:55:25;100043.50;;;23.04;57.10
17254;BME280;32542;52.832;13.816;2023-08-07T03:58:28;100044.50;;;23.03;57.08
17254;BME280;32542;52.832;13.816;2023-08-07T04:01:31;100051.53;;;23.04;56.96
17254;BME280;32542;52.832;13.816;2023-08-07T04:04:34;100046.19;;;23.04;57.20
17254;BME280;32542;52.832;13.816;2023-08-07T04:07:37;100038.16;;;23.04;57.19
17254;BME280;32542;52.832;13.816;2023-08-07T04:10:41;100040.84;;;23.04;57.15
17254;BME280;32542;52.832;13.816;2023-08-07T04:13:44;100042.66;;;23.03;57.06
17254;BME280;32542;52.832;13.816;2023-08-07T04:16:47;100040.84;;;23.04;57.15
17254;BME280;32542;52.832;13.816;2023-08-07T04:19:50;100043.50;;;23.04;57.03
17254;BME280;32542;52.832;13.816;2023-08-07T04:22:53;100045.31;;;23.03;56.92
17254;BME280;32542;52.832;13.816;2023-08-07T04:25:58;100040.84;;;23.04;57.05
17254;BME280;32542;52.832;13.816;2023-08-07T04:29:02;100035.50;;;23.04;57.09
17254;BME280;32542;52.832;13.816;2023-08-07T04:32:06;100035.50;;;23.04;56.86
17254;BME280;32542;52.832;13.816;2023-08-07T04:35:09;100038.16;;;23.04;56.83
17254;BME280;32542;52.832;13.816;2023-08-07T04:38:12;100043.63;;;23.02;57.04
17254;BME280;32542;52.832;13.816;2023-08-07T04:41:16;100052.50;;;23.03;57.21
17254;BME280;32542;52.832;13.816;2023-08-07T04:44:19;100056.00;;;23.03;57.08
17254;BME280;32542;52.832;13.816;2023-08-07T04:47:22;100056.00;;;23.03;56.93
17254;BME280;32542;52.832;13.816;2023-08-07T04:50:25;100067.53;;;23.04;56.96
17254;BME280;32542;52.832;13.816;2023-08-07T04:53:28;100058.66;;;23.03;56.84
17254;BME280;32542;52.832;13.816;2023-08-07T04:56:32;100053.31;;;23.03;57.08
17254;BME280;32542;52.832;13.816;2023-08-07T04:59:35;100059.53;;;23.04;56.97
17254;BME280;32542;52.832;13.816;2023-08-07T05:02:38;100062.19;;;23.04;56.97
17254;BME280;32542;52.832;13.816;2023-08-07T05:05:41;100063.19;;;23.03;56.96
17254;BME280;32542;52.832;13.816;2023-08-07T05:08:44;100063.19;;;23.03;56.85
17254;BME280;32542;52.832;13.816;2023-08-07T05:11:48;100065.84;;;23.03;56.82
17254;BME280;32542;52.832;13.816;2023-08-07T05:14:51;100071.19;;;23.03;56.76
17254;BME280;32542;52.832;13.816;2023-08-07T05:17:54;100065.84;;;23.03;56.85
17254;BME280;32542;52.832;13.816;2023-08-07T05:20:57;100074.81;;;23.02;56.87
17254;BME280;32542;52.832;13.816;2023-08-07T05:24:00;100076.53;;;23.03;56.80
17254;BME280;32542;52.832;13.816;2023-08-07T05:27:05;100076.53;;;23.03;56.70
17254;BME280;32542;52.832;13.816;2023-08-07T05:30:11;100083.56;;;23.04;56.88
17254;BME280;32542;52.832;13.816;2023-08-07T05:33:14;100088.91;;;23.04;57.04
17254;BME280;32542;52.832;13.816;2023-08-07T05:36:17;100091.59;;;23.04;56.73
17254;BME280;32542;52.832;13.816;2023-08-07T05:39:20;100076.53;;;23.03;57.05
17254;BME280;32542;52.832;13.816;2023-08-07T05:42:24;100074.63;;;23.05;57.01
17254;BME280;32542;52.832;13.816;2023-08-07T05:45:27;100079.94;;;23.05;56.84
17254;BME280;32542;52.832;13.816;2023-08-07T05:48:30;100080.03;;;23.03;56.90
17254;BME280;32542;52.832;13.816;2023-08-07T05:51:33;100088.03;;;23.03;56.82
17254;BME280;32542;52.832;13.816;2023-08-07T05:54:36;100099.59;;;23.04;56.98
17254;BME280;32542;52.832;13.816;2023-08-07T05:57:40;100103.13;;;23.04;57.09
17254;BME280;32542;52.832;13.816;2023-08-07T06:07:44;100108.03;;;22.98;56.96
17254;BME280;32542;52.832;13.816;2023-08-07T06:10:47;100106.41;;;22.95;56.58
17254;BME280;32542;52.832;13.816;2023-08-07T06:13:51;100119.97;;;22.92;56.48
17254;BME280;32542;52.832;13.816;2023-08-07T06:16:54;100123.72;;;22.90;56.33
17254;BME280;32542;52.832;13.816;2023-08-07T06:19:59;100131.16;;;22.85;56.02
17254;BME280;32542;52.832;13.816;2023-08-07T06:23:02;100126.78;;;22.84;56.18
17254;BME280;32542;52.832;13.816;2023-08-07T06:26:05;100132.31;;;22.81;55.87
17254;BME280;32542;52.832;13.816;2023-08-07T06:29:10;100128.91;;;22.79;56.20
17254;BME280;32542;52.832;13.816;2023-08-07T06:32:13;100123.66;;;22.77;55.99
17254;BME280;32542;52.832;13.816;2023-08-07T06:35:16;100121.19;;;22.74;55.91
17254;BME280;32542;52.832;13.816;2023-08-07T06:38:19;100126.63;;;22.73;55.72
17254;BME280;32542;52.832;13.816;2023-08-07T06:41:22;100131.13;;;22.72;55.43
17254;BME280;32542;52.832;13.816;2023-08-07T06:44:26;100136.56;;;22.71;55.38
17254;BME280;32542;52.832;13.816;2023-08-07T06:47:30;100134.94;;;22.68;55.33
17254;BME280;32542;52.832;13.816;2023-08-07T06:50:32;100146.47;;;22.69;55.15
17254;BME280;32542;52.832;13.816;2023-08-07T06:53:35;100143.06;;;22.67;55.32
17254;BME280;32542;52.832;13.816;2023-08-07T06:56:38;100143.13;;;22.65;55.04
17254;BME280;32542;52.832;13.816;2023-08-07T06:59:45;100151.25;;;22.64;54.92
17254;BME280;32542;52.832;13.816;2023-08-07T07:02:48;100154.97;;;22.61;54.96
17254;BME280;32542;52.832;13.816;2023-08-07T07:05:51;100159.47;;;22.61;54.92
17254;BME280;32542;52.832;13.816;2023-08-07T07:08:54;100155.09;;;22.60;54.70
17254;BME280;32542;52.832;13.816;2023-08-07T07:11:56;100157.81;;;22.58;54.71
17254;BME280;32542;52.832;13.816;2023-08-07T07:15:01;100166.69;;;22.59;54.65
17254;BME280;32542;52.832;13.816;2023-08-07T07:18:04;100159.63;;;22.58;54.46
17254;BME280;32542;52.832;13.816;2023-08-07T07:21:07;100156.97;;;22.58;54.51
17254;BME280;32542;52.832;13.816;2023-08-07T07:24:10;100168.56;;;22.57;54.36
17254;BME280;32542;52.832;13.816;2023-08-07T07:27:13;100168.78;;;22.53;54.16
17254;BME280;32542;52.832;13.816;2023-08-07T07:30:17;100161.72;;;22.52;54.16
17254;BME280;32542;52.832;13.816;2023-08-07T07:33:20;100160.03;;;22.51;54.02
17254;BME280;32542;52.832;13.816;2023-08-07T07:36:23;100167.28;;;22.49;53.76
17254;BME280;32542;52.832;13.816;2023-08-07T07:39:26;100168.97;;;22.50;53.75
17254;BME280;32542;52.832;13.816;2023-08-07T07:42:29;100177.97;;;22.49;53.81
17254;BME280;32542;52.832;13.816;2023-08-07T07:45:33;100164.69;;;22.48;53.63
17254;BME280;32542;52.832;13.816;2023-08-07T07:48:37;100170.03;;;22.48;53.73
17254;BME280;32542;52.832;13.816;2023-08-07T07:51:40;100179.88;;;22.47;53.87
17254;BME280;32542;52.832;13.816;2023-08-07T07:54:46;100181.66;;;22.47;53.71
17254;BME280;32542;52.832;13.816;2023-08-07T07:57:48;100182.53;;;22.47;53.70
17254;BME280;32542;52.832;13.816;2023-08-07T08:00:53;100183.47;;;22.46;53.62
17254;BME280;32542;52.832;13.816;2023-08-07T08:03:56;100193.28;;;22.46;53.70
17254;BME280;32542;52.832;13.816;2023-08-07T08:06:59;100196.81;;;22.46;53.51
17254;BME280;32542;52.832;13.816;2023-08-07T08:10:02;100195.13;;;22.45;53.53
17254;BME280;32542;52.832;13.816;2023-08-07T08:13:08;100204.81;;;22.46;53.87
17254;BME280;32542;52.832;13.816;2023-08-07T08:16:12;100201.22;;;22.47;53.71
17254;BME280;32542;52.832;13.816;2023-08-07T08:19:16;100209.97;;;22.49;54.03
17254;BME280;32542;52.832;13.816;2023-08-07T08:22:19;100216.94;;;22.52;53.82
17254;BME280;32542;52.832;13.816;2023-08-07T08:25:21;100208.72;;;22.55;54.01
17254;BME280;32542;52.832;13.816;2023-08-07T08:28:24;100220.06;;;22.59;53.99
17254;BME280;32542;52.832;13.816;2023-08-07T08:31:29;100220.84;;;22.61;54.22
17254;BME280;32542;52.832;13.816;2023-08-07T08:34:32;100223.41;;;22.62;54.20
17254;BME280;32542;52.832;13.816;2023-08-07T08:37:35;100220.75;;;22.62;53.98
17254;BME280;32542;52.832;13.816;2023-08-07T08:40:38;100220.53;;;22.65;54.20
17254;BME280;32542;52.832;13.816;2023-08-07T08:43:43;100229.22;;;22.69;54.19
17254;BME280;32542;52.832;13.816;2023-08-07T08:46:50;100226.56;;;22.69;54.10
17254;BME280;32542;52.832;13.816;2023-08-07T08:50:00;100229.13;;;22.70;54.14
17254;BME280;32542;52.832;13.816;2023-08-07T08:53:04;100223.66;;;22.72;54.01
17254;BME280;32542;52.832;13.816;2023-08-07T08:56:10;100223.59;;;22.73;54.01
17254;BME280;32542;52.832;13.816;2023-08-07T08:59:13;100211.09;;;22.74;53.98
17254;BME280;32542;52.832;13.816;2023-08-07T09:02:21;100226.16;;;22.75;54.08
17254;BME280;32542;52.832;13.816;2023-08-07T09:05:24;100231.50;;;22.75;53.97
17254;BME280;32542;52.832;13.816;2023-08-07T09:08:27;100227.84;;;22.76;54.13
17254;BME280;32542;52.832;13.816;2023-08-07T09:11:32;100222.50;;;22.76;54.22
17254;BME280;32542;52.832;13.816;2023-08-07T09:14:38;100215.47;;;22.75;54.24
17254;BME280;32542;52.832;13.816;2023-08-07T09:17:44;100218.91;;;22.77;54.22
17254;BME280;32542;52.832;13.816;2023-08-07T09:20:48;100216.25;;;22.77;54.33
17254;BME280;32542;52.832;13.816;2023-08-07T09:23:51;100215.25;;;22.78;54.38
17254;BME280;32542;52.832;13.816;2023-08-07T09:26:55;100211.66;;;22.79;54.32
17254;BME280;32542;52.832;13.816;2023-08-07T09:29:58;100225.88;;;22.79;54.41
17254;BME280;32542;52.832;13.816;2023-08-07T09:33:03;100213.38;;;22.80;54.28
17254;BME280;32542;52.832;13.816;2023-08-07T09:36:07;100202.69;;;22.80;54.52
17254;BME280;32542;52.832;13.816;2023-08-07T09:39:10;100209.75;;;22.81;54.49
17254;BME280;32542;52.832;13.816;2023-08-07T09:42:13;100213.38;;;22.80;54.36
17254;BME280;32542;52.832;13.816;2023-08-07T09:45:21;100188.38;;;22.81;54.34
17254;BME280;32542;52.832;13.816;2023-08-07T09:48:26;100195.44;;;22.82;54.51
17254;BME280;32542;52.832;13.816;2023-08-07T09:51:41;100203.34;;;22.83;54.79
17254;BME280;32542;52.832;13.816;2023-08-07T09:54:44;100206.88;;;22.84;54.88
17254;BME280;32542;52.832;13.816;2023-08-07T09:57:48;100222.78;;;22.85;54.80
17254;BME280;32542;52.832;13.816;2023-08-07T10:00:51;100229.00;;;22.86;54.55
17254;BME280;32542;52.832;13.816;2023-08-07T10:03:58;100235.09;;;22.88;54.52
17254;BME280;32542;52.832;13.816;2023-08-07T10:07:01;100240.44;;;22.88;54.75
17254;BME280;32542;52.832;13.816;2023-08-07T10:10:05;100237.66;;;22.89;54.65
17254;BME280;32542;52.832;13.816;2023-08-07T10:13:09;100235.84;;;22.90;54.45
17254;BME280;32542;52.832;13.816;2023-08-07T10:16:17;100245.56;;;22.91;54.51
17254;BME280;32542;52.832;13.816;2023-08-07T10:19:22;100245.47;;;22.92;54.32
17254;BME280;32542;52.832;13.816;2023-08-07T10:22:26;100240.97;;;22.93;54.49
17254;BME280;32542;52.832;13.816;2023-08-07T10:25:30;100241.84;;;22.93;54.63
17254;BME280;32542;52.832;13.816;2023-08-07T10:28:35;100242.69;;;22.94;54.46
17254;BME280;32542;52.832;13.816;2023-08-07T10:31:40;100233.72;;;22.95;54.46
17254;BME280;32542;52.832;13.816;2023-08-07T10:34:49;100224.75;;;22.96;54.47
17254;BME280;32542;52.832;13.816;2023-08-07T10:37:52;100228.28;;;22.96;54.49
17254;BME280;32542;52.832;13.816;2023-08-07T10:40:59;100226.47;;;22.97;54.56
17254;BME280;32542;52.832;13.816;2023-08-07T10:44:02;100234.38;;;22.98;54.56
17254;BME280;32542;52.832;13.816;2023-08-07T10:47:05;100234.38;;;22.98;54.58
17254;BME280;32542;52.832;13.816;2023-08-07T10:50:10;100230.75;;;22.99;54.54
17254;BME280;32542;52.832;13.816;2023-08-07T10:53:19;100236.00;;;23.01;54.62
17254;BME280;32542;52.832;13.816;2023-08-07T10:56:30;100219.00;;;23.02;54.46
17254;BME280;32542;52.832;13.816;2023-08-07T10:59:37;100229.69;;;23.02;54.60
17254;BME280;32542;52.832;13.816;2023-08-07T11:02:41;100234.09;;;23.03;54.63
17254;BME280;32542;52.832;13.816;2023-08-07T11:05:46;100228.81;;;23.01;54.36
17254;BME280;32542;52.832;13.816;2023-08-07T11:08:49;100227.03;;;23.02;54.64
17254;BME280;32542;52.832;13.816;2023-08-07T11:11:52;100226.09;;;23.03;54.40
17254;BME280;32542;52.832;13.816;2023-08-07T11:14:56;100228.00;;;23.01;54.68
17254;BME280;32542;52.832;13.816;2023-08-07T11:17:59;100224.47;;;23.00;54.54
17254;BME280;32542;52.832;13.816;2023-08-07T11:21:03;100236.00;;;23.01;54.29
17254;BME280;32542;52.832;13.816;2023-08-07T11:24:06;100229.81;;;23.00;54.31
17254;BME280;32542;52.832;13.816;2023-08-07T11:27:09;100233.34;;;23.01;54.34
17254;BME280;32542;52.832;13.816;2023-08-07T11:30:12;100220.94;;;23.00;54.39
17254;BME280;32542;52.832;13.816;2023-08-07T11:33:15;100222.72;;;22.99;54.23
17254;BME280;32542;52.832;13.816;2023-08-07T11:36:22;100227.13;;;23.00;54.28
17254;BME280;32542;52.832;13.816;2023-08-07T11:39:25;100222.72;;;22.99;54.44
17254;BME280;32542;52.832;13.816;2023-08-07T11:42:28;100221.88;;;22.99;54.24
17254;BME280;32542;52.832;13.816;2023-08-07T11:45:30;100221.88;;;22.99;54.31
17254;BME280;32542;52.832;13.816;2023-08-07T11:48:35;100231.72;;;22.98;54.19
17254;BME280;32542;52.832;13.816;2023-08-07T11:51:39;100229.88;;;22.99;54.41
17254;BME280;32542;52.832;13.816;2023-08-07T11:54:46;100217.50;;;22.98;54.49
17254;BME280;32542;52.832;13.816;2023-08-07T11:57:49;100222.84;;;22.98;54.27
17254;BME280;32542;52.832;13.816;2023-08-07T12:00:52;100218.44;;;22.97;54.62
17254;BME280;32542;52.832;13.816;2023-08-07T12:03:57;100228.19;;;22.98;54.45
17254;BME280;32542;52.832;13.816;2023-08-07T12:07:17;100227.31;;;22.97;54.50
17254;BME280;32542;52.832;13.816;2023-08-07T12:10:22;100228.19;;;22.98;54.31
17254;BME280;32542;52.832;13.816;2023-08-07T12:13:26;100228.19;;;22.98;54.38
17254;BME280;32542;52.832;13.816;2023-08-07T12:16:32;100241.53;;;22.98;54.50
17254;BME280;32542;52.832;13.816;2023-08-07T12:19:36;100233.53;;;22.98;54.44
17254;BME280;32542;52.832;13.816;2023-08-07T12:22:41;100245.06;;;22.98;54.31
17254;BME280;32542;52.832;13.816;2023-08-07T12:25:45;100249.53;;;22.98;54.45
17254;BME280;32542;52.832;13.816;2023-08-07T12:28:48;100254.88;;;22.98;54.52
17254;BME280;32542;52.832;13.816;2023-08-07T12:31:51;100252.22;;;22.98;54.56
17254;BME280;32542;52.832;13.816;2023-08-07T12:34:54;100253.16;;;22.97;54.41
17254;BME280;32542;52.832;13.816;2023-08-07T12:38:01;100249.53;;;22.98;54.51
17254;BME280;32542;52.832;13.816;2023-08-07T12:41:04;100253.16;;;22.97;54.35
17254;BME280;32542;52.832;13.816;2023-08-07T12:44:08;100265.56;;;22.98;54.38
17254;BME280;32542;52.832;13.816;2023-08-07T12:47:11;100268.25;;;22.98;54.31
17254;BME280;32542;52.832;13.816;2023-08-07T12:50:14;100275.28;;;22.99;54.56
17254;BME280;32542;52.832;13.816;2023-08-07T12:53:18;100276.25;;;22.98;54.27
17254;BME280;32542;52.832;13.816;2023-08-07T12:56:21;100280.63;;;22.99;54.22
17254;BME280;32542;52.832;13.816;2023-08-07T12:59:24;100277.94;;;22.99;54.53
17254;BME280;32542;52.832;13.816;2023-08-07T13:02:27;100277.13;;;22.98;54.24
17254;BME280;32542;52.832;13.816;2023-08-07T13:05:30;100286.94;;;22.98;54.16
17254;BME280;32542;52.832;13.816;2023-08-07T13:08:34;100278.91;;;22.98;54.11
17254;BME280;32542;52.832;13.816;2023-08-07T13:11:37;100298.47;;;22.98;54.19
17254;BME280;32542;52.832;13.816;2023-08-07T13:14:40;100296.75;;;22.97;54.10
17254;BME280;32542;52.832;13.816;2023-08-07T13:17:44;100297.63;;;22.98;54.10
17254;BME280;32542;52.832;13.816;2023-08-07T13:20:47;100307.25;;;23.00;54.14
17254;BME280;32542;52.832;13.816;2023-08-07T13:23:51;100315.16;;;23.02;54.78
17254;BME280;32542;52.832;13.816;2023-08-07T13:26:54;100315.16;;;23.02;54.80
17254;BME280;32542;52.832;13.816;2023-08-07T13:29:58;100320.50;;;23.02;55.25
17254;BME280;32542;52.832;13.816;2023-08-07T13:33:00;100320.50;;;23.02;55.20
17254;BME280;32542;52.832;13.816;2023-08-07T13:36:04;100334.72;;;23.02;55.14
17254;BME280;32542;52.832;13.816;2023-08-07T13:39:08;100336.50;;;23.02;54.93
17254;BME280;32542;52.832;13.816;2023-08-07T13:42:11;100336.63;;;23.00;55.11
17254;BME280;32542;52.832;13.816;2023-08-07T13:45:14;100352.66;;;23.00;55.01
17254;BME280;32542;52.832;13.816;2023-08-07T13:48:17;100365.13;;;23.00;54.99
17254;BME280;32542;52.832;13.816;2023-08-07T13:51:21;100353.59;;;22.99;54.66
17254;BME280;32542;52.832;13.816;2023-08-07T13:54:25;100370.47;;;23.00;54.75
17254;BME280;32542;52.832;13.816;2023-08-07T13:57:28;100369.53;;;23.01;54.41
17254;BME280;32542;52.832;13.816;2023-08-07T14:00:31;100376.56;;;23.02;54.68
17254;BME280;32542;52.832;13.816;2023-08-07T14:03:36;100384.59;;;23.02;54.42
17254;BME280;32542;52.832;13.816;2023-08-07T14:06:39;100379.13;;;23.03;54.21
17254;BME280;32542;52.832;13.816;2023-08-07T14:09:45;100382.69;;;23.04;53.83
17254;BME280;32542;52.832;13.816;2023-08-07T14:12:48;100381.72;;;23.05;53.92
17254;BME280;32542;52.832;13.816;2023-08-07T14:15:51;100392.41;;;23.05;54.06
17254;BME280;32542;52.832;13.816;2023-08-07T14:18:53;100396.03;;;23.04;54.21
17254;BME280;32542;52.832;13.816;2023-08-07T14:21:56;100398.81;;;23.02;54.19
17254;BME280;32542;52.832;13.816;2023-08-07T14:25:01;100398.69;;;23.04;54.06
17254;BME280;32542;52.832;13.816;2023-08-07T14:28:04;100405.94;;;23.02;54.00
17254;BME280;32542;52.832;13.816;2023-08-07T14:31:09;100397.94;;;23.02;53.93
17254;BME280;32542;52.832;13.816;2023-08-07T14:34:12;100405.94;;;23.02;53.83
17254;BME280;32542;52.832;13.816;2023-08-07T14:37:15;100401.59;;;23.01;54.08
17254;BME280;32542;52.832;13.816;2023-08-07T14:40:19;100399.75;;;23.01;53.70
17254;BME280;32542;52.832;13.816;2023-08-07T14:43:22;100414.94;;;23.01;53.71
17254;BME280;32542;52.832;13.816;2023-08-07T14:46:25;100431.78;;;23.01;53.98
17254;BME280;32542;52.832;13.816;2023-08-07T14:49:28;100420.28;;;23.01;53.84
17254;BME280;32542;52.832;13.816;2023-08-07T14:52:31;100425.63;;;23.01;53.72
17254;BME280;32542;52.832;13.816;2023-08-07T14:55:35;100415.78;;;23.01;53.61
17254;BME280;32542;52.832;13.816;2023-08-07T14:58:38;100436.31;;;23.01;53.66
17254;BME280;32542;52.832;13.816;2023-08-07T15:01:41;100424.75;;;23.00;53.34
17254;BME280;32542;52.832;13.816;2023-08-07T15:04:44;100429.22;;;23.00;53.13
17254;BME280;32542;52.832;13.816;2023-08-07T15:07:47;100438.97;;;23.01;53.18
17254;BME280;32542;52.832;13.816;2023-08-07T15:10:52;100438.97;;;23.01;52.97
17254;BME280;32542;52.832;13.816;2023-08-07T15:13:55;100439.91;;;23.00;53.16
17254;BME280;32542;52.832;13.816;2023-08-07T15:16:58;100440.00;;;22.98;53.02
17254;BME280;32542;52.832;13.816;2023-08-07T15:20:01;100455.94;;;23.00;53.00
17254;BME280;32542;52.832;13.816;2023-08-07T15:23:05;100444.38;;;22.99;53.24
17254;BME280;32542;52.832;13.816;2023-08-07T15:26:09;100438.19;;;22.99;52.87
17254;BME280;32542;52.832;13.816;2023-08-07T15:29:12;100434.56;;;23.00;52.93
17254;BME280;32542;52.832;13.816;2023-08-07T15:32:16;100418.53;;;23.00;52.81
17254;BME280;32542;52.832;13.816;2023-08-07T15:35:20;100432.84;;;22.99;52.77
17254;BME280;32542;52.832;13.816;2023-08-07T15:38:25;100437.34;;;22.98;52.65
17254;BME280;32542;52.832;13.816;2023-08-07T15:41:31;100448.03;;;22.98;52.62
17254;BME280;32542;52.832;13.816;2023-08-07T15:44:34;100442.69;;;22.98;52.58
17254;BME280;32542;52.832;13.816;2023-08-07T15:47:37;100443.50;;;22.99;52.78
17254;BME280;32542;52.832;13.816;2023-08-07T15:50:39;100437.34;;;22.98;52.61
17254;BME280;32542;52.832;13.816;2023-08-07T15:53:42;100457.84;;;22.98;52.56
17254;BME280;32542;52.832;13.816;2023-08-07T15:56:47;100447.16;;;22.98;52.77